createdAt,value
2017-12-02T00:00:30.122Z,2.30
2017-12-02T00:02:57.614Z,2.30
2017-12-02T00:05:25.054Z,2.40
2017-12-02T00:07:52.526Z,2.30
2017-12-02T00:10:19.971Z,2.30
2017-12-02T00:12:47.408Z,2.20
2017-12-02T00:15:14.838Z,2.20
2017-12-02T00:17:43.070Z,2.20
2017-12-02T00:20:10.506Z,2.20
2017-12-02T00:22:37.983Z,2.20
2017-12-02T00:25:05.427Z,2.20
2017-12-02T00:27:32.861Z,2.20
2017-12-02T00:30:00.300Z,2.20
2017-12-02T00:32:28.524Z,2.10
2017-12-02T00:34:55.967Z,2.10
2017-12-02T00:37:23.410Z,2.10
2017-12-02T00:39:50.846Z,2.10
2017-12-02T00:42:19.046Z,2.00
2017-12-02T00:44:46.490Z,2.00
2017-12-02T00:47:13.930Z,2.10
2017-12-02T00:49:42.138Z,2.10
2017-12-02T00:52:09.578Z,2.10
2017-12-02T00:54:37.067Z,2.10
2017-12-02T00:57:04.503Z,2.00
2017-12-02T00:59:31.945Z,1.90
2017-12-02T01:01:59.386Z,1.70
2017-12-02T01:04:27.595Z,1.70
2017-12-02T01:06:55.062Z,1.60
2017-12-02T01:09:22.510Z,1.70
2017-12-02T01:11:49.951Z,1.70
2017-12-02T01:14:17.391Z,1.70
2017-12-02T01:16:45.594Z,1.60
2017-12-02T01:19:13.035Z,1.60
2017-12-02T01:21:40.474Z,1.60
2017-12-02T01:24:08.691Z,1.60
2017-12-02T01:26:36.130Z,1.60
2017-12-02T01:29:03.574Z,1.60
2017-12-02T01:31:31.005Z,1.70
2017-12-02T01:33:59.218Z,1.60
2017-12-02T01:36:26.658Z,1.60
2017-12-02T01:38:54.101Z,1.60
2017-12-02T01:41:22.322Z,1.50
2017-12-02T01:43:49.761Z,1.50
2017-12-02T01:46:17.198Z,1.30
2017-12-02T01:48:44.634Z,1.00
2017-12-02T01:51:12.843Z,0.80
2017-12-02T01:53:40.279Z,0.80
2017-12-02T01:56:08.484Z,0.90
2017-12-02T01:58:35.923Z,0.90
2017-12-02T02:01:03.380Z,1.00
2017-12-02T02:03:30.814Z,1.10
2017-12-02T02:05:59.039Z,1.00
2017-12-02T02:08:26.470Z,1.00
2017-12-02T02:10:53.910Z,0.80
2017-12-02T02:13:21.349Z,0.80
2017-12-02T02:15:49.583Z,0.60
2017-12-02T02:18:17.021Z,0.60
2017-12-02T02:20:44.466Z,0.70
2017-12-02T02:23:11.906Z,0.70
2017-12-02T02:25:40.115Z,0.60
2017-12-02T02:28:07.550Z,0.60
2017-12-02T02:30:35.008Z,0.60
2017-12-02T02:33:02.443Z,0.60
2017-12-02T02:35:30.667Z,0.70
2017-12-02T02:37:58.104Z,0.70
2017-12-02T02:40:25.556Z,0.80
2017-12-02T02:42:52.987Z,0.80
2017-12-02T02:45:21.269Z,0.90
2017-12-02T02:47:48.626Z,0.80
2017-12-02T02:50:16.062Z,0.90
2017-12-02T02:52:44.303Z,1.00
2017-12-02T02:55:11.740Z,1.00
2017-12-02T02:57:39.182Z,1.00
2017-12-02T03:00:06.622Z,1.00
2017-12-02T03:02:35.647Z,0.90
2017-12-02T03:05:03.082Z,0.80
2017-12-02T03:07:30.529Z,0.80
2017-12-02T03:09:58.727Z,0.50
2017-12-02T03:12:28.802Z,0.40
2017-12-02T03:14:57.001Z,0.40
2017-12-02T03:17:24.443Z,0.50
2017-12-02T03:19:52.651Z,0.50
2017-12-02T03:22:20.095Z,0.50
2017-12-02T03:24:47.534Z,0.50
2017-12-02T03:27:15.792Z,0.50
2017-12-02T03:29:43.179Z,0.40
2017-12-02T03:32:10.618Z,0.30
2017-12-02T03:34:39.336Z,0.10
2017-12-02T03:37:06.759Z,0.10
2017-12-02T03:39:34.987Z,0.00
2017-12-02T03:42:02.436Z,0.00
2017-12-02T03:44:29.874Z,-0.10
2017-12-02T03:46:57.320Z,-0.20
2017-12-02T03:49:24.759Z,-0.20
2017-12-02T03:51:52.980Z,-0.40
2017-12-02T03:54:20.419Z,-0.50
2017-12-02T03:56:47.871Z,-0.50
2017-12-02T03:59:15.323Z,-0.50
2017-12-02T04:01:42.775Z,-0.70
2017-12-02T04:04:10.223Z,-0.80
2017-12-02T04:06:37.666Z,-0.80
2017-12-02T04:09:05.878Z,-0.80
2017-12-02T04:11:33.326Z,-0.80
2017-12-02T04:14:00.778Z,-0.70
2017-12-02T04:16:28.219Z,-0.70
2017-12-02T04:18:56.425Z,-0.50
2017-12-02T04:21:23.870Z,-0.50
2017-12-02T04:23:51.322Z,-0.50
2017-12-02T04:26:18.770Z,-0.50
2017-12-02T04:28:46.221Z,-0.40
2017-12-02T04:31:13.670Z,-0.40
2017-12-02T04:33:41.899Z,-0.50
2017-12-02T04:36:09.547Z,-0.50
2017-12-02T04:38:37.015Z,-0.50
2017-12-02T04:41:04.854Z,-0.50
2017-12-02T04:43:32.343Z,-0.50
2017-12-02T04:45:59.787Z,-0.60
2017-12-02T04:48:27.255Z,-0.60
2017-12-02T04:50:54.698Z,-0.60
2017-12-02T04:53:22.167Z,-0.70
2017-12-02T04:55:49.622Z,-0.70
2017-12-02T04:58:17.183Z,-0.70
2017-12-02T05:00:44.627Z,-0.60
2017-12-02T05:03:12.070Z,-0.60
2017-12-02T05:05:39.510Z,-0.60
2017-12-02T05:08:06.962Z,-0.60
2017-12-02T05:10:34.403Z,-0.70
2017-12-02T05:13:02.619Z,-0.60
2017-12-02T05:15:30.062Z,-0.60
2017-12-02T05:17:57.502Z,-0.60
2017-12-02T05:20:25.002Z,-0.80
2017-12-02T05:22:52.446Z,-0.80
2017-12-02T05:25:19.890Z,-0.70
2017-12-02T05:27:47.334Z,-0.70
2017-12-02T05:30:14.778Z,-0.70
2017-12-02T05:32:42.991Z,-0.50
2017-12-02T05:35:10.443Z,-0.60
2017-12-02T05:37:37.883Z,-0.50
2017-12-02T05:40:05.379Z,-0.40
2017-12-02T05:42:32.830Z,-0.40
2017-12-02T05:45:00.291Z,-0.30
2017-12-02T05:47:27.747Z,-0.20
2017-12-02T05:49:55.299Z,-0.30
2017-12-02T05:52:22.741Z,-0.20
2017-12-02T05:54:50.999Z,-0.30
2017-12-02T05:57:18.442Z,-0.40
2017-12-02T05:59:46.658Z,-0.50
2017-12-02T06:02:14.223Z,-0.50
2017-12-02T06:07:15.739Z,-0.40
2017-12-02T06:09:43.962Z,-0.40
2017-12-02T06:12:11.424Z,-0.50
2017-12-02T06:14:38.991Z,-0.30
2017-12-02T06:17:06.438Z,-0.30
2017-12-02T06:19:33.883Z,-0.20
2017-12-02T06:22:01.323Z,-0.10
2017-12-02T06:24:28.773Z,0.10
2017-12-02T06:26:56.211Z,0.00
2017-12-02T06:29:24.424Z,0.20
2017-12-02T06:31:51.858Z,0.20
2017-12-02T06:34:19.354Z,0.30
2017-12-02T06:36:46.909Z,0.40
2017-12-02T06:39:14.354Z,0.50
2017-12-02T06:41:42.463Z,0.50
2017-12-02T06:44:09.895Z,0.50
2017-12-02T06:46:37.342Z,0.60
2017-12-02T06:49:04.777Z,0.60
2017-12-02T06:51:32.219Z,0.60
2017-12-02T06:53:59.718Z,0.60
2017-12-02T06:56:27.159Z,0.70
2017-12-02T06:58:54.594Z,0.60
2017-12-02T07:01:22.034Z,0.60
2017-12-02T07:03:50.234Z,0.60
2017-12-02T07:06:17.669Z,0.50
2017-12-02T07:08:45.875Z,0.70
2017-12-02T07:11:13.319Z,0.70
2017-12-02T07:13:40.760Z,0.70
2017-12-02T07:16:08.967Z,0.80
2017-12-02T07:18:36.411Z,0.80
2017-12-02T07:21:03.854Z,0.90
2017-12-02T07:23:31.294Z,0.80
2017-12-02T07:25:59.502Z,0.90
2017-12-02T07:28:26.941Z,0.90
2017-12-02T07:30:54.378Z,1.00
2017-12-02T07:33:22.583Z,1.20
2017-12-02T07:35:50.032Z,1.10
2017-12-02T07:38:17.470Z,1.10
2017-12-02T07:40:45.679Z,1.00
2017-12-02T07:43:13.884Z,1.10
2017-12-02T07:45:41.345Z,1.10
2017-12-02T07:48:08.775Z,1.10
2017-12-02T07:50:36.215Z,1.10
2017-12-02T07:53:03.694Z,1.10
2017-12-02T07:55:31.137Z,1.20
2017-12-02T07:57:58.579Z,1.30
2017-12-02T08:00:26.011Z,1.30
2017-12-02T08:02:54.219Z,1.40
2017-12-02T08:05:21.659Z,1.40
2017-12-02T08:07:49.098Z,1.30
2017-12-02T08:10:17.306Z,1.30
2017-12-02T08:12:44.754Z,1.30
2017-12-02T08:15:12.195Z,1.40
2017-12-02T08:17:39.639Z,1.30
2017-12-02T08:20:07.848Z,1.40
2017-12-02T08:22:35.286Z,1.40
2017-12-02T08:25:02.722Z,1.50
2017-12-02T08:27:30.956Z,1.40
2017-12-02T08:29:58.403Z,1.40
2017-12-02T08:32:25.853Z,1.50
2017-12-02T08:34:53.294Z,1.50
2017-12-02T08:37:20.739Z,1.50
2017-12-02T08:39:48.183Z,1.50
2017-12-02T08:42:16.395Z,1.60
2017-12-02T08:44:43.835Z,1.60
2017-12-02T08:47:11.284Z,1.60
2017-12-02T08:49:38.731Z,1.70
2017-12-02T08:52:06.952Z,1.80
2017-12-02T08:54:35.052Z,1.80
2017-12-02T08:57:03.263Z,1.80
2017-12-02T08:59:30.755Z,1.80
2017-12-02T09:01:58.215Z,1.90
2017-12-02T09:04:25.658Z,1.90
2017-12-02T09:06:53.094Z,1.90
2017-12-02T09:09:20.545Z,2.00
2017-12-02T09:11:47.978Z,2.00
2017-12-02T09:14:16.188Z,2.00
2017-12-02T09:16:43.622Z,2.00
2017-12-02T09:19:11.830Z,2.00
2017-12-02T09:21:39.284Z,2.00
2017-12-02T09:24:06.732Z,2.10
2017-12-02T09:26:34.166Z,2.10
2017-12-02T09:29:01.631Z,2.20
2017-12-02T09:31:29.819Z,2.20
2017-12-02T09:33:57.273Z,2.30
2017-12-02T09:36:24.710Z,2.30
2017-12-02T09:38:52.920Z,2.30
2017-12-02T09:41:20.360Z,2.30
2017-12-02T09:43:47.811Z,2.40
2017-12-02T09:46:15.243Z,2.40
2017-12-02T09:48:43.481Z,2.30
2017-12-02T09:51:10.923Z,2.30
2017-12-02T09:53:38.367Z,2.30
2017-12-02T09:56:05.802Z,2.40
2017-12-02T09:58:33.250Z,2.40
2017-12-02T10:01:01.475Z,2.40
2017-12-02T10:03:28.916Z,2.40
2017-12-02T10:05:56.356Z,2.40
2017-12-02T10:08:23.797Z,2.40
2017-12-02T10:10:51.300Z,2.40
2017-12-02T10:13:19.155Z,2.40
2017-12-02T10:15:46.598Z,2.30
2017-12-02T10:18:14.047Z,2.30
2017-12-02T10:20:41.482Z,2.30
2017-12-02T10:23:09.703Z,2.40
2017-12-02T10:25:37.143Z,2.30
2017-12-02T10:28:04.582Z,2.40
2017-12-02T10:30:32.026Z,2.40
2017-12-02T10:33:00.234Z,2.50
2017-12-02T10:35:27.685Z,2.50
2017-12-02T10:37:55.123Z,2.50
2017-12-02T10:40:22.571Z,2.50
2017-12-02T10:42:50.775Z,2.50
2017-12-02T10:45:18.224Z,2.50
2017-12-02T10:47:45.717Z,2.60
2017-12-02T10:50:13.163Z,2.60
2017-12-02T10:52:40.607Z,2.60
2017-12-02T10:55:08.046Z,2.60
2017-12-02T10:57:35.574Z,2.60
2017-12-02T11:00:03.784Z,2.60
2017-12-02T11:02:31.223Z,2.60
2017-12-02T11:04:58.666Z,2.60
2017-12-02T11:07:26.872Z,2.60
2017-12-02T11:09:54.311Z,2.60
2017-12-02T11:12:21.751Z,2.60
2017-12-02T11:14:49.960Z,2.50
2017-12-02T11:17:17.403Z,2.50
2017-12-02T11:19:44.859Z,2.50
2017-12-02T11:22:12.316Z,2.50
2017-12-02T11:24:39.815Z,2.40
2017-12-02T11:27:07.250Z,2.40
2017-12-02T11:29:34.761Z,2.40
2017-12-02T11:32:02.154Z,2.40
2017-12-02T11:34:29.593Z,2.50
2017-12-02T11:36:57.092Z,2.50
2017-12-02T11:39:24.535Z,2.60
2017-12-02T11:41:52.006Z,2.50
2017-12-02T11:44:19.442Z,2.60
2017-12-02T11:46:46.886Z,2.60
2017-12-02T11:49:15.042Z,2.50
2017-12-02T11:51:43.246Z,2.60
2017-12-02T11:54:10.695Z,2.60
2017-12-02T11:56:38.134Z,2.60
2017-12-02T11:59:05.577Z,2.70
2017-12-02T12:01:33.784Z,2.70
2017-12-02T12:04:01.227Z,2.70
2017-12-02T12:06:28.671Z,2.70
2017-12-02T12:08:56.891Z,2.80
2017-12-02T12:11:24.343Z,2.80
2017-12-02T12:13:51.783Z,2.80
2017-12-02T12:16:19.228Z,2.80
2017-12-02T12:18:46.679Z,2.90
2017-12-02T12:21:14.123Z,3.00
2017-12-02T12:23:42.355Z,3.10
2017-12-02T12:26:09.787Z,3.00
2017-12-02T12:28:37.222Z,3.10
2017-12-02T12:31:04.670Z,3.20
2017-12-02T12:33:32.871Z,3.10
2017-12-02T12:36:00.319Z,3.10
2017-12-02T12:38:27.762Z,3.20
2017-12-02T12:40:55.203Z,3.20
2017-12-02T12:43:23.423Z,3.20
2017-12-02T12:45:50.861Z,3.20
2017-12-02T12:48:18.298Z,3.30
2017-12-02T12:50:46.515Z,3.30
2017-12-02T12:53:13.960Z,3.30
2017-12-02T12:55:41.391Z,3.30
2017-12-02T12:58:09.047Z,3.20
2017-12-02T13:00:37.258Z,3.10
2017-12-02T13:03:04.710Z,3.10
2017-12-02T13:05:32.947Z,3.10
2017-12-02T13:08:01.168Z,3.20
2017-12-02T13:10:28.603Z,3.10
2017-12-02T13:12:56.082Z,3.20
2017-12-02T13:15:23.519Z,3.20
2017-12-02T13:17:50.968Z,3.30
2017-12-02T13:20:19.174Z,3.30
2017-12-02T13:22:46.615Z,3.30
2017-12-02T13:25:14.065Z,3.30
2017-12-02T13:27:41.511Z,3.20
2017-12-02T13:30:08.946Z,3.10
2017-12-02T13:32:37.155Z,3.00
2017-12-02T13:35:04.635Z,3.00
2017-12-02T13:37:32.084Z,3.00
2017-12-02T13:39:59.519Z,3.00
2017-12-02T13:42:27.047Z,3.00
2017-12-02T13:44:55.264Z,3.00
2017-12-02T13:47:22.712Z,3.00
2017-12-02T13:49:50.187Z,3.00
2017-12-02T13:52:17.634Z,3.00
2017-12-02T13:54:45.621Z,3.10
2017-12-02T13:57:13.064Z,3.10
2017-12-02T13:59:40.532Z,3.00
2017-12-02T14:02:08.583Z,3.10
2017-12-02T14:04:36.023Z,3.10
2017-12-02T14:07:03.465Z,3.10
2017-12-02T14:09:31.888Z,3.20
2017-12-02T14:11:59.323Z,3.20
2017-12-02T14:14:26.807Z,3.20
2017-12-02T14:16:54.243Z,3.20
2017-12-02T14:19:21.715Z,3.20
2017-12-02T14:21:49.147Z,3.20
2017-12-02T14:24:16.588Z,3.20
2017-12-02T14:26:44.030Z,3.10
2017-12-02T14:29:12.259Z,3.00
2017-12-02T14:31:39.700Z,3.00
2017-12-02T14:34:07.178Z,2.90
2017-12-02T14:36:34.616Z,3.00
2017-12-02T14:39:02.063Z,2.90
2017-12-02T14:41:29.506Z,2.90
2017-12-02T14:43:56.955Z,2.70
2017-12-02T14:46:24.451Z,2.70
2017-12-02T14:48:51.894Z,2.70
2017-12-02T14:51:19.339Z,2.80
2017-12-02T14:53:47.532Z,2.80
2017-12-02T14:56:14.976Z,2.80
2017-12-02T14:58:43.282Z,2.80
2017-12-02T15:01:10.724Z,2.80
2017-12-02T15:03:38.171Z,2.90
2017-12-02T15:06:05.617Z,2.80
2017-12-02T15:08:33.054Z,2.80
2017-12-02T15:11:00.525Z,2.80
2017-12-02T15:13:27.959Z,2.80
2017-12-02T15:15:56.165Z,2.80
2017-12-02T15:18:23.607Z,2.80
2017-12-02T15:20:51.049Z,2.80
2017-12-02T15:23:19.256Z,2.80
2017-12-02T15:25:46.699Z,2.80
2017-12-02T15:28:14.140Z,2.70
2017-12-02T15:30:42.431Z,2.70
2017-12-02T15:33:09.910Z,2.60
2017-12-02T15:35:38.159Z,2.60
2017-12-02T15:38:05.607Z,2.60
2017-12-02T15:40:33.064Z,2.60
2017-12-02T15:43:00.503Z,2.60
2017-12-02T15:45:28.718Z,2.60
2017-12-02T15:47:56.159Z,2.60
2017-12-02T15:50:23.611Z,2.60
2017-12-02T15:52:51.051Z,2.50
2017-12-02T15:55:19.255Z,2.60
2017-12-02T15:57:47.187Z,2.50
2017-12-02T16:00:15.399Z,2.60
2017-12-02T16:02:42.835Z,2.60
2017-12-02T16:05:10.330Z,2.60
2017-12-02T16:07:37.779Z,2.60
2017-12-02T16:10:05.256Z,2.70
2017-12-02T16:12:32.687Z,2.70
2017-12-02T16:15:00.127Z,2.60
2017-12-02T16:17:27.562Z,2.60
2017-12-02T16:19:55.772Z,2.50
2017-12-02T16:22:23.207Z,2.50
2017-12-02T16:24:50.698Z,2.50
2017-12-02T16:27:18.148Z,2.50
2017-12-02T16:29:45.615Z,2.40
2017-12-02T16:32:13.058Z,2.40
2017-12-02T16:34:40.498Z,2.40
2017-12-02T16:37:07.940Z,2.40
2017-12-02T16:39:35.384Z,2.40
2017-12-02T16:42:03.587Z,2.50
2017-12-02T16:44:31.022Z,2.50
2017-12-02T16:46:59.235Z,2.40
2017-12-02T16:49:26.670Z,2.40
2017-12-02T16:51:54.131Z,2.40
2017-12-02T16:54:21.575Z,2.40
2017-12-02T16:56:49.019Z,2.40
2017-12-02T16:59:17.229Z,2.40
2017-12-02T17:01:44.672Z,2.40
2017-12-02T17:04:12.191Z,2.40
2017-12-02T17:06:39.638Z,2.40
2017-12-02T17:09:07.147Z,2.40
2017-12-02T17:11:35.396Z,2.40
2017-12-02T17:14:03.603Z,2.40
2017-12-02T17:16:31.047Z,2.40
2017-12-02T17:18:58.492Z,2.40
2017-12-02T17:21:26.744Z,2.40
2017-12-02T17:23:54.271Z,2.40
2017-12-02T17:26:21.722Z,2.40
2017-12-02T17:28:49.167Z,2.30
2017-12-02T17:31:16.616Z,2.30
2017-12-02T17:33:44.046Z,2.30
2017-12-02T17:36:12.264Z,2.30
2017-12-02T17:38:39.706Z,2.30
2017-12-02T17:41:07.147Z,2.30
2017-12-02T17:43:34.645Z,2.30
2017-12-02T17:46:02.084Z,2.20
2017-12-02T17:48:29.527Z,2.20
2017-12-02T17:50:56.967Z,2.20
2017-12-02T17:53:25.213Z,2.30
2017-12-02T17:55:52.651Z,2.30
2017-12-02T17:58:20.125Z,2.30
2017-12-02T18:00:47.632Z,2.20
2017-12-02T18:03:15.063Z,2.20
2017-12-02T18:05:43.283Z,2.20
2017-12-02T18:08:10.726Z,2.20
2017-12-02T18:10:38.172Z,2.30
2017-12-02T18:13:05.623Z,2.20
2017-12-02T18:15:33.067Z,2.30
2017-12-02T18:18:00.532Z,2.30
2017-12-02T18:20:27.972Z,2.30
2017-12-02T18:22:56.182Z,2.30
2017-12-02T18:25:23.631Z,2.30
2017-12-02T18:27:51.075Z,2.30
2017-12-02T18:30:19.118Z,2.30
2017-12-02T18:32:47.327Z,2.30
2017-12-02T18:35:14.843Z,2.30
2017-12-02T18:37:42.291Z,2.30
2017-12-02T18:40:09.726Z,2.30
2017-12-02T18:42:37.175Z,2.30
2017-12-02T18:45:04.614Z,2.30
2017-12-02T18:47:32.056Z,2.30
2017-12-02T18:49:59.520Z,2.30
2017-12-02T18:52:27.702Z,2.30
2017-12-02T18:54:55.143Z,2.30
2017-12-02T18:57:22.586Z,2.30
2017-12-02T18:59:50.806Z,2.20
2017-12-02T19:02:18.252Z,2.20
2017-12-02T19:04:45.723Z,2.30
2017-12-02T19:07:13.159Z,2.30
2017-12-02T19:09:40.598Z,2.30
2017-12-02T19:12:08.039Z,2.30
2017-12-02T19:14:36.248Z,2.30
2017-12-02T19:17:03.688Z,2.30
2017-12-02T19:19:31.131Z,2.30
2017-12-02T19:21:58.576Z,2.30
2017-12-02T19:24:26.789Z,2.20
2017-12-02T19:26:54.222Z,2.20
2017-12-02T19:29:21.666Z,2.20
2017-12-02T19:31:49.884Z,2.20
2017-12-02T19:34:17.330Z,2.10
2017-12-02T19:36:44.766Z,2.20
2017-12-02T19:39:12.265Z,2.20
2017-12-02T19:41:39.706Z,2.10
2017-12-02T19:44:07.154Z,2.20
2017-12-02T19:46:34.587Z,2.10
2017-12-02T19:49:02.807Z,2.20
2017-12-02T19:51:30.252Z,2.20
2017-12-02T19:53:57.699Z,2.20
2017-12-02T19:56:25.135Z,2.20
2017-12-02T19:58:52.580Z,2.30
2017-12-02T20:01:20.785Z,2.30
2017-12-02T20:03:48.228Z,2.30
2017-12-02T20:06:15.673Z,2.30
2017-12-02T20:08:43.879Z,2.30
2017-12-02T20:11:11.328Z,2.30
2017-12-02T20:13:38.766Z,2.30
2017-12-02T20:16:06.212Z,2.30
2017-12-02T20:18:34.419Z,2.30
2017-12-02T20:21:01.873Z,2.30
2017-12-02T20:23:29.330Z,2.30
2017-12-02T20:25:56.768Z,2.30
2017-12-02T20:28:24.715Z,2.30
2017-12-02T20:30:52.924Z,2.30
2017-12-02T20:33:20.368Z,2.30
2017-12-02T20:35:47.807Z,2.30
2017-12-02T20:38:16.020Z,2.30
2017-12-02T20:40:43.490Z,2.30
2017-12-02T20:43:10.927Z,2.30
2017-12-02T20:45:38.376Z,2.30
2017-12-02T20:48:05.806Z,2.30
2017-12-02T20:50:34.081Z,2.20
2017-12-02T20:53:01.506Z,2.30
2017-12-02T20:55:28.956Z,2.20
2017-12-02T20:57:56.392Z,2.30
2017-12-02T21:00:23.835Z,2.30
2017-12-02T21:02:51.280Z,2.30
2017-12-02T21:05:19.412Z,2.30
2017-12-02T21:07:46.951Z,2.30
2017-12-02T21:10:14.403Z,2.30
2017-12-02T21:12:41.882Z,2.30
2017-12-02T21:15:09.311Z,2.30
2017-12-02T21:17:36.767Z,2.20
2017-12-02T21:20:04.226Z,2.30
2017-12-02T21:22:31.687Z,2.20
2017-12-02T21:24:59.120Z,2.20
2017-12-02T21:27:26.572Z,2.20
2017-12-02T21:29:54.007Z,2.30
2017-12-02T21:32:21.456Z,2.30
2017-12-02T21:34:49.659Z,2.20
2017-12-02T21:37:17.144Z,2.20
2017-12-02T21:39:44.604Z,2.20
2017-12-02T21:42:12.042Z,2.20
2017-12-02T21:44:39.831Z,2.20
2017-12-02T21:47:07.283Z,2.10
2017-12-02T21:49:34.714Z,2.20
2017-12-02T21:52:02.178Z,2.10
2017-12-02T21:54:29.619Z,2.20
2017-12-02T21:56:57.058Z,2.20
2017-12-02T21:59:24.503Z,2.20
2017-12-02T22:01:52.726Z,2.20
2017-12-02T22:04:20.167Z,2.20
2017-12-02T22:06:47.642Z,2.30
2017-12-02T22:09:15.090Z,2.30
2017-12-02T22:11:42.526Z,2.30
2017-12-02T22:14:10.735Z,2.30
2017-12-02T22:16:38.192Z,2.30
2017-12-02T22:19:05.624Z,2.30
2017-12-02T22:21:33.071Z,2.20
2017-12-02T22:24:00.507Z,2.20
2017-12-02T22:26:28.715Z,2.20
2017-12-02T22:28:56.150Z,2.20
2017-12-02T22:31:23.593Z,2.20
2017-12-02T22:33:52.566Z,2.20
2017-12-02T22:36:20.120Z,2.20
2017-12-02T22:38:48.338Z,2.20
2017-12-02T22:41:15.779Z,2.20
2017-12-02T22:43:43.992Z,2.30
2017-12-02T22:46:11.435Z,2.20
2017-12-02T22:48:38.883Z,2.20
2017-12-02T22:51:06.366Z,2.30
2017-12-02T22:53:33.811Z,2.30
2017-12-02T22:56:01.255Z,2.30
2017-12-02T22:58:28.694Z,2.20
2017-12-02T23:00:56.139Z,2.10
2017-12-02T23:03:24.347Z,1.90
2017-12-02T23:05:51.791Z,1.90
2017-12-02T23:08:19.246Z,1.90
2017-12-02T23:10:46.682Z,1.90
2017-12-02T23:13:14.895Z,1.90
2017-12-02T23:15:42.339Z,1.90
2017-12-02T23:18:09.778Z,1.90
2017-12-02T23:20:37.218Z,2.00
2017-12-02T23:23:05.451Z,2.20
2017-12-02T23:25:32.990Z,2.10
2017-12-02T23:28:00.434Z,2.20
2017-12-02T23:30:28.118Z,2.20
2017-12-02T23:32:55.568Z,2.20
2017-12-02T23:35:23.042Z,2.20
2017-12-02T23:37:50.495Z,2.20
2017-12-02T23:40:17.932Z,2.30
2017-12-02T23:42:45.367Z,2.30
2017-12-02T23:45:12.814Z,2.30
2017-12-02T23:47:41.010Z,2.20
2017-12-02T23:50:08.494Z,2.20
2017-12-02T23:52:35.930Z,2.20
2017-12-02T23:55:03.370Z,2.20
2017-12-02T23:57:30.806Z,2.20
2017-12-02T23:59:59.043Z,2.20
